首页
METAR-TAF:

METAR-TAF

机场 :

合肥, 中华人民共和国

合肥新桥国际机场

纬度: 31-52N, 经度: 117-14E, 海拔: 36米

当前天气观测

该预报发布于11分钟前的00:00 UTC
风速4节,风向北转东北
温度 5°C
湿度 87%
气压 1028 hPa
能見度: 5000
多云层高于1000英尺
阴天层高于3000英尺
轻雾

METAR: ZSOF 250000Z 02002MPS 5000 BR BKN010 OVC030 05/03 Q1028 NOSIG

时间: 08:11 (00:11 UTC)

预报

该预报发布于5小时和7分钟前的19:04 UTC
预报有效从25日的 00点(UTC)到 25日的 24点(UTC)
风速6节,风向北转东北
能見度: 4000
多云层高于1100英尺
轻雾
成为
从 25日的 02点(UTC)到 25日的 03点(UTC)
多云层高于2000英尺

TAF: ZSOF 241904Z 2500/2524 03003MPS 4000 BR BKN011 TX11/2506Z TN03/2522Z BECMG 2502/2503 BKN020

超过4000个机场的气象观测和天气预报(METAR&TAF报告)。

可查询的气象台以黄色和红色小点在地图上表示。

将鼠标移到小点上方,可查看气象台名称。

然后点击查看天气观测和预报。

如需切换地图:点击带黑十字的绿色按钮放大地图;点击带横线的绿色按钮缩小地图;或者点击绿色箭头查看邻近地区的地图。


METAR-TAF: